sensor_id;sensor_type;location;lat;lon;timestamp;pressure;altitude;pressure_sealevel;temperature;humidity
23118;BME280;11728;50.624;6.014;2023-03-01T00:00:26;99474.41;;;-1.37;66.25
23118;BME280;11728;50.624;6.014;2023-03-01T00:05:26;99476.34;;;-1.52;67.23
23118;BME280;11728;50.624;6.014;2023-03-01T00:10:26;99482.75;;;-1.62;67.54
23118;BME280;11728;50.624;6.014;2023-03-01T00:16:17;99493.88;;;-1.65;68.45
23118;BME280;11728;50.624;6.014;2023-03-01T01:36:00;99449.00;;;-2.41;72.37
23118;BME280;11728;50.624;6.014;2023-03-01T01:41:00;99442.81;;;-2.44;73.37
23118;BME280;11728;50.624;6.014;2023-03-01T01:46:06;99434.09;;;-2.46;72.80
23118;BME280;11728;50.624;6.014;2023-03-01T01:51:13;99441.03;;;-2.45;72.66
23118;BME280;11728;50.624;6.014;2023-03-01T01:56:14;99440.81;;;-2.50;73.47
23118;BME280;11728;50.624;6.014;2023-03-01T02:01:15;99427.75;;;-2.53;73.80
23118;BME280;11728;50.624;6.014;2023-03-01T02:06:26;99423.38;;;-2.54;74.07
23118;BME280;11728;50.624;6.014;2023-03-01T02:11:31;99409.31;;;-2.60;73.99
23118;BME280;11728;50.624;6.014;2023-03-01T02:16:32;99406.72;;;-2.60;73.92
23118;BME280;11728;50.624;6.014;2023-03-01T02:26:40;99402.38;;;-2.61;74.72
23118;BME280;11728;50.624;6.014;2023-03-01T02:31:42;99402.16;;;-2.66;74.15
23118;BME280;11728;50.624;6.014;2023-03-01T02:36:54;99391.69;;;-2.69;74.41
23118;BME280;11728;50.624;6.014;2023-03-01T02:41:57;99386.97;;;-2.77;74.89
23118;BME280;11728;50.624;6.014;2023-03-01T02:47:01;99375.47;;;-2.84;75.35
23118;BME280;11728;50.624;6.014;2023-03-01T02:52:17;99370.78;;;-2.92;76.01
23118;BME280;11728;50.624;6.014;2023-03-01T02:57:23;99383.69;;;-2.92;75.95
23118;BME280;11728;50.624;6.014;2023-03-01T03:02:29;99372.59;;;-2.90;75.71
23118;BME280;11728;50.624;6.014;2023-03-01T03:07:37;99359.56;;;-2.93;75.41
23118;BME280;11728;50.624;6.014;2023-03-01T03:12:38;99367.97;;;-2.97;75.83
23118;BME280;11728;50.624;6.014;2023-03-01T03:17:41;99365.94;;;-3.04;75.88
23118;BME280;11728;50.624;6.014;2023-03-01T03:22:41;99370.81;;;-3.09;76.83
23118;BME280;11728;50.624;6.014;2023-03-01T03:27:43;99375.69;;;-3.15;76.97
23118;BME280;11728;50.624;6.014;2023-03-01T03:32:46;99378.91;;;-3.19;76.59
23118;BME280;11728;50.624;6.014;2023-03-01T03:37:53;99367.44;;;-3.26;77.46
23118;BME280;11728;50.624;6.014;2023-03-01T03:43:12;99362.19;;;-3.27;76.70
23118;BME280;11728;50.624;6.014;2023-03-01T03:48:13;99367.06;;;-3.33;77.25
23118;BME280;11728;50.624;6.014;2023-03-01T03:53:14;99367.88;;;-3.34;77.45
23118;BME280;11728;50.624;6.014;2023-03-01T03:58:15;99366.84;;;-3.38;77.36
23118;BME280;11728;50.624;6.014;2023-03-01T04:03:19;99345.31;;;-3.38;77.30
23118;BME280;11728;50.624;6.014;2023-03-01T04:08:21;99339.13;;;-3.42;77.30
23118;BME280;11728;50.624;6.014;2023-03-01T04:13:22;99344.66;;;-3.52;77.69
23118;BME280;11728;50.624;6.014;2023-03-01T04:18:25;99344.59;;;-3.53;77.96
23118;BME280;11728;50.624;6.014;2023-03-01T04:23:26;99339.44;;;-3.53;77.99
23118;BME280;11728;50.624;6.014;2023-03-01T04:28:40;99345.16;;;-3.59;78.60
23118;BME280;11728;50.624;6.014;2023-03-01T04:33:46;99344.88;;;-3.65;79.18
23118;BME280;11728;50.624;6.014;2023-03-01T04:38:46;99337.06;;;-3.66;79.07
23118;BME280;11728;50.624;6.014;2023-03-01T04:43:50;99319.00;;;-3.66;79.31
23118;BME280;11728;50.624;6.014;2023-03-01T04:48:50;99308.53;;;-3.69;79.46
23118;BME280;11728;50.624;6.014;2023-03-01T04:53:51;99305.78;;;-3.72;79.53
23118;BME280;11728;50.624;6.014;2023-03-01T04:58:55;99295.88;;;-3.82;79.60
23118;BME280;11728;50.624;6.014;2023-03-01T05:03:55;99313.47;;;-3.91;80.03
23118;BME280;11728;50.624;6.014;2023-03-01T05:08:55;99322.91;;;-3.91;79.60
23118;BME280;11728;50.624;6.014;2023-03-01T05:13:56;99321.03;;;-3.94;80.04
23118;BME280;11728;50.624;6.014;2023-03-01T05:18:57;99305.38;;;-3.98;79.88
23118;BME280;11728;50.624;6.014;2023-03-01T05:23:57;99314.72;;;-4.00;80.25
23118;BME280;11728;50.624;6.014;2023-03-01T05:28:58;99314.47;;;-4.05;80.34
23118;BME280;11728;50.624;6.014;2023-03-01T05:33:59;99301.28;;;-4.11;81.10
23118;BME280;11728;50.624;6.014;2023-03-01T05:38:59;99305.47;;;-4.13;81.39
23118;BME280;11728;50.624;6.014;2023-03-01T05:43:59;99305.47;;;-4.13;81.39
23118;BME280;11728;50.624;6.014;2023-03-01T05:49:00;99308.06;;;-4.13;81.38
23118;BME280;11728;50.624;6.014;2023-03-01T05:54:00;99322.44;;;-4.18;82.07
23118;BME280;11728;50.624;6.014;2023-03-01T05:59:01;99320.34;;;-4.25;82.58
23118;BME280;11728;50.624;6.014;2023-03-01T06:04:03;99322.75;;;-4.28;82.57
23118;BME280;11728;50.624;6.014;2023-03-01T06:09:04;99325.34;;;-4.28;82.45
23118;BME280;11728;50.624;6.014;2023-03-01T06:14:07;99319.22;;;-4.30;82.86
23118;BME280;11728;50.624;6.014;2023-03-01T06:19:08;99319.06;;;-4.33;83.23
23118;BME280;11728;50.624;6.014;2023-03-01T06:24:08;99304.25;;;-4.37;82.91
23118;BME280;11728;50.624;6.014;2023-03-01T06:29:09;99315.47;;;-4.36;82.87
23118;BME280;11728;50.624;6.014;2023-03-01T06:34:09;99305.22;;;-4.35;83.49
23118;BME280;11728;50.624;6.014;2023-03-01T06:39:13;99294.25;;;-4.31;83.23
23118;BME280;11728;50.624;6.014;2023-03-01T06:44:13;99293.59;;;-4.27;82.82
23118;BME280;11728;50.624;6.014;2023-03-01T06:49:14;99297.75;;;-4.13;82.69
23118;BME280;11728;50.624;6.014;2023-03-01T06:54:16;99299.59;;;-3.93;82.13
23118;BME280;11728;50.624;6.014;2023-03-01T06:59:18;99293.13;;;-3.85;82.01
23118;BME280;11728;50.624;6.014;2023-03-01T07:04:19;99294.53;;;-3.74;82.48
23118;BME280;11728;50.624;6.014;2023-03-01T07:09:19;99291.78;;;-3.42;81.61
23118;BME280;11728;50.624;6.014;2023-03-01T07:14:22;99283.28;;;-1.65;81.46
23118;BME280;11728;50.624;6.014;2023-03-01T07:19:24;99274.28;;;0.07;75.83
23118;BME280;11728;50.624;6.014;2023-03-01T07:24:25;99256.34;;;1.25;72.71
23118;BME280;11728;50.624;6.014;2023-03-01T07:29:25;99253.94;;;2.26;67.33
23118;BME280;11728;50.624;6.014;2023-03-01T07:34:25;99242.88;;;3.09;64.77
23118;BME280;11728;50.624;6.014;2023-03-01T07:39:26;99247.19;;;3.93;62.92
23118;BME280;11728;50.624;6.014;2023-03-01T07:44:26;99248.66;;;4.79;60.34
23118;BME280;11728;50.624;6.014;2023-03-01T07:49:28;99237.84;;;5.83;57.40
23118;BME280;11728;50.624;6.014;2023-03-01T07:54:28;99235.06;;;6.54;54.95
23118;BME280;11728;50.624;6.014;2023-03-01T07:59:29;99237.25;;;7.22;52.31
23118;BME280;11728;50.624;6.014;2023-03-01T08:04:29;99230.41;;;7.51;50.61
23118;BME280;11728;50.624;6.014;2023-03-01T08:09:30;99223.53;;;7.91;48.75
23118;BME280;11728;50.624;6.014;2023-03-01T08:14:31;99213.97;;;8.34;47.76
23118;BME280;11728;50.624;6.014;2023-03-01T08:19:32;99198.19;;;8.81;47.30
23118;BME280;11728;50.624;6.014;2023-03-01T08:24:33;99194.59;;;9.22;45.98
23118;BME280;11728;50.624;6.014;2023-03-01T08:29:34;99193.50;;;9.74;45.00
23118;BME280;11728;50.624;6.014;2023-03-01T08:34:34;99194.91;;;10.32;43.58
23118;BME280;11728;50.624;6.014;2023-03-01T08:39:35;99193.81;;;10.61;42.46
23118;BME280;11728;50.624;6.014;2023-03-01T08:44:36;99190.66;;;11.10;42.21
23118;BME280;11728;50.624;6.014;2023-03-01T08:49:36;99189.44;;;11.43;41.34
23118;BME280;11728;50.624;6.014;2023-03-01T08:54:36;99179.81;;;12.03;40.14
23118;BME280;11728;50.624;6.014;2023-03-01T08:59:37;99182.63;;;12.50;39.50
23118;BME280;11728;50.624;6.014;2023-03-01T09:04:37;99174.88;;;12.91;38.47
23118;BME280;11728;50.624;6.014;2023-03-01T09:09:38;99156.22;;;13.42;37.08
23118;BME280;11728;50.624;6.014;2023-03-01T09:14:38;99159.66;;;13.87;36.64
23118;BME280;11728;50.624;6.014;2023-03-01T09:19:41;99149.63;;;14.00;36.10
23118;BME280;11728;50.624;6.014;2023-03-01T09:24:41;99148.34;;;14.54;35.57
23118;BME280;11728;50.624;6.014;2023-03-01T09:29:42;99150.34;;;14.79;35.40
23118;BME280;11728;50.624;6.014;2023-03-01T09:34:42;99153.34;;;13.93;35.68
23118;BME280;11728;50.624;6.014;2023-03-01T09:40:02;99164.03;;;12.51;37.19
23118;BME280;11728;50.624;6.014;2023-03-01T09:45:06;99162.00;;;12.68;36.88
23118;BME280;11728;50.624;6.014;2023-03-01T09:50:19;99146.97;;;13.17;35.70
23118;BME280;11728;50.624;6.014;2023-03-01T09:55:31;99155.94;;;13.10;35.79
23118;BME280;11728;50.624;6.014;2023-03-01T10:00:39;99145.34;;;13.94;35.04
23118;BME280;11728;50.624;6.014;2023-03-01T10:06:04;99141.38;;;14.50;33.73
23118;BME280;11728;50.624;6.014;2023-03-01T10:11:24;99125.66;;;14.74;33.47
23118;BME280;11728;50.624;6.014;2023-03-01T10:21:49;99116.72;;;14.78;33.01
23118;BME280;11728;50.624;6.014;2023-03-01T10:26:58;99111.00;;;14.91;31.98
23118;BME280;11728;50.624;6.014;2023-03-01T10:32:03;99103.09;;;15.22;32.02
23118;BME280;11728;50.624;6.014;2023-03-01T10:37:13;99097.91;;;15.16;31.79
23118;BME280;11728;50.624;6.014;2023-03-01T10:42:26;99103.47;;;16.25;31.32
23118;BME280;11728;50.624;6.014;2023-03-01T10:47:27;99088.34;;;16.53;31.08
23118;BME280;11728;50.624;6.014;2023-03-01T10:52:35;99086.59;;;16.52;30.31
23118;BME280;11728;50.624;6.014;2023-03-01T10:57:39;99087.69;;;16.71;29.48
23118;BME280;11728;50.624;6.014;2023-03-01T11:02:43;99073.13;;;17.05;29.04
23118;BME280;11728;50.624;6.014;2023-03-01T11:07:57;99065.63;;;17.40;28.58
23118;BME280;11728;50.624;6.014;2023-03-01T11:13:13;99058.38;;;17.88;28.34
23118;BME280;11728;50.624;6.014;2023-03-01T11:18:22;99049.91;;;17.77;28.20
23118;BME280;11728;50.624;6.014;2023-03-01T11:23:23;99041.53;;;18.07;27.97
23118;BME280;11728;50.624;6.014;2023-03-01T11:28:25;99035.41;;;18.68;28.98
23118;BME280;11728;50.624;6.014;2023-03-01T11:38:29;99021.66;;;18.57;27.62
23118;BME280;11728;50.624;6.014;2023-03-01T11:43:45;99014.72;;;18.91;27.06
23118;BME280;11728;50.624;6.014;2023-03-01T11:49:01;99009.56;;;19.07;27.21
23118;BME280;11728;50.624;6.014;2023-03-01T12:09:59;98985.41;;;19.08;26.19
23118;BME280;11728;50.624;6.014;2023-03-01T12:25:39;98971.19;;;18.07;26.76
23118;BME280;11728;50.624;6.014;2023-03-01T12:30:55;98966.16;;;18.21;26.86
23118;BME280;11728;50.624;6.014;2023-03-01T12:57:42;98970.97;;;16.77;28.06
23118;BME280;11728;50.624;6.014;2023-03-01T13:02:51;98970.78;;;16.34;28.39
23118;BME280;11728;50.624;6.014;2023-03-01T13:13:14;98949.47;;;16.82;28.24
23118;BME280;11728;50.624;6.014;2023-03-01T13:33:43;98940.34;;;15.62;29.43
23118;BME280;11728;50.624;6.014;2023-03-01T13:43:58;98940.16;;;15.41;29.97
23118;BME280;11728;50.624;6.014;2023-03-01T13:48:58;98938.72;;;15.58;29.91
23118;BME280;11728;50.624;6.014;2023-03-01T13:53:59;98929.69;;;15.62;29.53
23118;BME280;11728;50.624;6.014;2023-03-01T13:59:23;98936.19;;;15.81;29.75
23118;BME280;11728;50.624;6.014;2023-03-01T14:04:29;98930.53;;;15.64;29.54
23118;BME280;11728;50.624;6.014;2023-03-01T14:09:31;98923.38;;;15.39;29.86
23118;BME280;11728;50.624;6.014;2023-03-01T14:14:56;98925.63;;;15.24;30.20
23118;BME280;11728;50.624;6.014;2023-03-01T14:20:09;98935.34;;;14.96;30.52
23118;BME280;11728;50.624;6.014;2023-03-01T14:25:23;98922.47;;;14.52;31.44
23118;BME280;11728;50.624;6.014;2023-03-01T14:30:33;98927.47;;;14.32;31.45
23118;BME280;11728;50.624;6.014;2023-03-01T14:35:35;98920.75;;;13.84;31.79
23118;BME280;11728;50.624;6.014;2023-03-01T14:40:36;98911.34;;;13.37;32.31
23118;BME280;11728;50.624;6.014;2023-03-01T14:45:37;98901.16;;;12.80;32.79
23118;BME280;11728;50.624;6.014;2023-03-01T14:50:41;98901.13;;;11.97;33.59
23118;BME280;11728;50.624;6.014;2023-03-01T14:55:46;98892.66;;;11.23;34.65
23118;BME280;11728;50.624;6.014;2023-03-01T15:00:52;98886.09;;;10.93;35.19
23118;BME280;11728;50.624;6.014;2023-03-01T15:05:53;98883.66;;;10.78;35.25
23118;BME280;11728;50.624;6.014;2023-03-01T15:16:10;98870.13;;;10.99;35.41
23118;BME280;11728;50.624;6.014;2023-03-01T15:26:26;98875.88;;;10.67;35.13
23118;BME280;11728;50.624;6.014;2023-03-01T15:31:31;98874.84;;;10.78;34.78
23118;BME280;11728;50.624;6.014;2023-03-01T15:36:43;98867.66;;;10.89;34.98
23118;BME280;11728;50.624;6.014;2023-03-01T15:41:48;98872.13;;;10.82;34.74
23118;BME280;11728;50.624;6.014;2023-03-01T15:46:48;98864.81;;;11.01;36.63
23118;BME280;11728;50.624;6.014;2023-03-01T15:51:49;98867.00;;;10.72;36.09
23118;BME280;11728;50.624;6.014;2023-03-01T15:56:49;98865.72;;;10.37;35.83
23118;BME280;11728;50.624;6.014;2023-03-01T16:01:50;98859.88;;;10.15;36.40
23118;BME280;11728;50.624;6.014;2023-03-01T16:06:52;98859.19;;;9.94;36.92
23118;BME280;11728;50.624;6.014;2023-03-01T16:11:55;98859.50;;;9.67;37.13
23118;BME280;11728;50.624;6.014;2023-03-01T16:16:56;98842.22;;;9.39;37.31
23118;BME280;11728;50.624;6.014;2023-03-01T16:21:56;98837.28;;;8.98;38.08
23118;BME280;11728;50.624;6.014;2023-03-01T16:26:56;98831.38;;;8.67;38.50
23118;BME280;11728;50.624;6.014;2023-03-01T16:32:00;98829.84;;;8.35;39.07
23118;BME280;11728;50.624;6.014;2023-03-01T16:37:01;98837.84;;;8.05;39.82
23118;BME280;11728;50.624;6.014;2023-03-01T16:42:01;98844.97;;;7.64;40.55
23118;BME280;11728;50.624;6.014;2023-03-01T16:47:01;98849.41;;;7.30;41.19
23118;BME280;11728;50.624;6.014;2023-03-01T16:52:02;98859.94;;;7.09;41.62
23118;BME280;11728;50.624;6.014;2023-03-01T16:57:02;98865.16;;;6.86;42.33
23118;BME280;11728;50.624;6.014;2023-03-01T17:02:04;98861.63;;;6.64;42.88
23118;BME280;11728;50.624;6.014;2023-03-01T17:07:06;98862.47;;;6.37;43.30
23118;BME280;11728;50.624;6.014;2023-03-01T17:12:07;98864.16;;;6.20;44.03
23118;BME280;11728;50.624;6.014;2023-03-01T17:17:08;98872.81;;;6.02;44.45
23118;BME280;11728;50.624;6.014;2023-03-01T17:22:12;98873.63;;;5.90;44.76
23118;BME280;11728;50.624;6.014;2023-03-01T17:27:16;98872.75;;;5.84;44.60
23118;BME280;11728;50.624;6.014;2023-03-01T17:32:17;98868.28;;;5.72;45.21
23118;BME280;11728;50.624;6.014;2023-03-01T17:37:18;98853.31;;;5.52;45.71
23118;BME280;11728;50.624;6.014;2023-03-01T17:42:18;98877.69;;;5.39;46.12
23118;BME280;11728;50.624;6.014;2023-03-01T17:47:18;98882.84;;;5.30;46.27
23118;BME280;11728;50.624;6.014;2023-03-01T17:52:18;98882.72;;;5.15;46.70
23118;BME280;11728;50.624;6.014;2023-03-01T17:57:22;98869.53;;;5.00;47.40
23118;BME280;11728;50.624;6.014;2023-03-01T18:02:23;98874.63;;;4.82;47.84
23118;BME280;11728;50.624;6.014;2023-03-01T18:07:25;98880.56;;;4.69;48.24
23118;BME280;11728;50.624;6.014;2023-03-01T18:12:26;98884.81;;;4.55;48.89
23118;BME280;11728;50.624;6.014;2023-03-01T18:17:26;98886.47;;;4.46;49.13
23118;BME280;11728;50.624;6.014;2023-03-01T18:22:27;98880.25;;;4.37;49.54
23118;BME280;11728;50.624;6.014;2023-03-01T18:27:27;98881.91;;;4.29;49.56
23118;BME280;11728;50.624;6.014;2023-03-01T18:32:27;98876.63;;;4.23;49.92
23118;BME280;11728;50.624;6.014;2023-03-01T18:37:28;98879.94;;;4.10;49.93
23118;BME280;11728;50.624;6.014;2023-03-01T18:42:28;98881.56;;;3.99;50.50
23118;BME280;11728;50.624;6.014;2023-03-01T18:47:29;98875.31;;;3.88;51.33
23118;BME280;11728;50.624;6.014;2023-03-01T18:52:29;98877.78;;;3.76;51.08
23118;BME280;11728;50.624;6.014;2023-03-01T18:57:29;98873.38;;;3.72;51.69
23118;BME280;11728;50.624;6.014;2023-03-01T19:02:30;98864.59;;;3.66;51.75
23118;BME280;11728;50.624;6.014;2023-03-01T19:07:30;98870.59;;;3.62;51.64
23118;BME280;11728;50.624;6.014;2023-03-01T19:12:31;98874.00;;;3.55;51.96
23118;BME280;11728;50.624;6.014;2023-03-01T19:17:34;98870.44;;;3.50;51.78
23118;BME280;11728;50.624;6.014;2023-03-01T19:22:34;98873.72;;;3.35;52.63
23118;BME280;11728;50.624;6.014;2023-03-01T19:27:35;98871.69;;;3.16;53.01
23118;BME280;11728;50.624;6.014;2023-03-01T19:32:35;98871.44;;;3.02;53.85
23118;BME280;11728;50.624;6.014;2023-03-01T19:37:36;98874.75;;;2.92;54.10
23118;BME280;11728;50.624;6.014;2023-03-01T19:42:36;98858.13;;;2.84;53.90
23118;BME280;11728;50.624;6.014;2023-03-01T19:47:36;98857.22;;;2.82;54.24
23118;BME280;11728;50.624;6.014;2023-03-01T19:52:37;98856.38;;;2.83;54.08
23118;BME280;11728;50.624;6.014;2023-03-01T19:57:37;98858.00;;;2.76;54.06
23118;BME280;11728;50.624;6.014;2023-03-01T20:02:37;98843.94;;;2.67;54.23
23118;BME280;11728;50.624;6.014;2023-03-01T20:07:38;98834.25;;;2.60;54.63
23118;BME280;11728;50.624;6.014;2023-03-01T20:12:39;98832.34;;;2.50;55.00
23118;BME280;11728;50.624;6.014;2023-03-01T20:17:39;98826.09;;;2.39;55.39
23118;BME280;11728;50.624;6.014;2023-03-01T20:22:41;98821.56;;;2.30;55.16
23118;BME280;11728;50.624;6.014;2023-03-01T20:27:41;98823.16;;;2.21;56.04
23118;BME280;11728;50.624;6.014;2023-03-01T20:32:46;98829.88;;;2.10;56.07
23118;BME280;11728;50.624;6.014;2023-03-01T20:37:46;98834.03;;;2.01;56.18
23118;BME280;11728;50.624;6.014;2023-03-01T20:42:47;98835.56;;;1.90;56.88
23118;BME280;11728;50.624;6.014;2023-03-01T20:47:48;98847.59;;;1.85;57.29
23118;BME280;11728;50.624;6.014;2023-03-01T20:52:48;98841.53;;;1.84;57.56
23118;BME280;11728;50.624;6.014;2023-03-01T20:57:49;98841.38;;;1.77;57.76
23118;BME280;11728;50.624;6.014;2023-03-01T21:02:49;98845.50;;;1.67;58.20
23118;BME280;11728;50.624;6.014;2023-03-01T21:07:50;98839.31;;;1.61;59.29
23118;BME280;11728;50.624;6.014;2023-03-01T21:12:50;98841.75;;;1.53;59.20
23118;BME280;11728;50.624;6.014;2023-03-01T21:17:51;98840.78;;;1.49;59.69
23118;BME280;11728;50.624;6.014;2023-03-01T21:22:51;98851.19;;;1.49;59.71
23118;BME280;11728;50.624;6.014;2023-03-01T21:27:51;98839.03;;;1.48;59.84
23118;BME280;11728;50.624;6.014;2023-03-01T21:32:51;98841.63;;;1.48;60.36
23118;BME280;11728;50.624;6.014;2023-03-01T21:37:52;98837.25;;;1.47;59.39
23118;BME280;11728;50.624;6.014;2023-03-01T21:42:52;98844.13;;;1.43;60.10
23118;BME280;11728;50.624;6.014;2023-03-01T21:47:52;98847.53;;;1.41;60.18
23118;BME280;11728;50.624;6.014;2023-03-01T21:52:53;98844.09;;;1.42;59.33
23118;BME280;11728;50.624;6.014;2023-03-01T21:57:54;98844.09;;;1.42;59.49
23118;BME280;11728;50.624;6.014;2023-03-01T22:02:54;98834.50;;;1.39;59.63
23118;BME280;11728;50.624;6.014;2023-03-01T22:07:57;98830.06;;;1.34;59.78
23118;BME280;11728;50.624;6.014;2023-03-01T22:12:57;98836.88;;;1.29;59.83
23118;BME280;11728;50.624;6.014;2023-03-01T22:17:58;98837.63;;;1.23;59.69
23118;BME280;11728;50.624;6.014;2023-03-01T22:22:59;98831.47;;;1.20;59.92
23118;BME280;11728;50.624;6.014;2023-03-01T22:27:59;98825.34;;;1.16;60.00
23118;BME280;11728;50.624;6.014;2023-03-01T22:32:59;98827.88;;;1.15;59.63
23118;BME280;11728;50.624;6.014;2023-03-01T22:38:00;98827.63;;;1.03;60.04
23118;BME280;11728;50.624;6.014;2023-03-01T22:43:00;98820.44;;;0.93;60.00
23118;BME280;11728;50.624;6.014;2023-03-01T22:48:01;98824.44;;;0.79;61.04
23118;BME280;11728;50.624;6.014;2023-03-01T22:53:03;98822.59;;;0.74;60.96
23118;BME280;11728;50.624;6.014;2023-03-01T22:58:04;98821.47;;;0.64;61.56
23118;BME280;11728;50.624;6.014;2023-03-01T23:03:04;98825.81;;;0.64;61.77
23118;BME280;11728;50.624;6.014;2023-03-01T23:08:05;98826.69;;;0.64;62.04
23118;BME280;11728;50.624;6.014;2023-03-01T23:13:05;98811.88;;;0.60;62.12
23118;BME280;11728;50.624;6.014;2023-03-01T23:18:05;98811.75;;;0.54;62.66
23118;BME280;11728;50.624;6.014;2023-03-01T23:23:06;98816.84;;;0.51;62.98
23118;BME280;11728;50.624;6.014;2023-03-01T23:28:07;98810.72;;;0.49;62.78
23118;BME280;11728;50.624;6.014;2023-03-01T23:33:07;98820.31;;;0.52;62.71
23118;BME280;11728;50.624;6.014;2023-03-01T23:38:07;98827.91;;;0.44;62.83
23118;BME280;11728;50.624;6.014;2023-03-01T23:43:08;98825.22;;;0.40;63.27
23118;BME280;11728;50.624;6.014;2023-03-01T23:48:10;98825.16;;;0.37;63.53
23118;BME280;11728;50.624;6.014;2023-03-01T23:53:13;98825.94;;;0.34;63.56
23118;BME280;11728;50.624;6.014;2023-03-01T23:58:14;98826.72;;;0.32;63.52
